Time;durP1;ratioP1;P1;durP2;ratioP2;P2;SDS_P1;SDS_P2;PMS_P1;PMS_P2;Temp;Humidity;BMP_temperature;BMP_pressure;BME280_temperature;BME280_humidity;BME280_pressure;Samples;Min_cycle;Max_cycle;Signal;HPM_P1;HPM_P2
2020/12/28 00:02:12;;;;;;;1.90;1.10;;;5.10;99.90;;;;;;5028414;28;20088;-78
2020/12/28 00:04:38;;;;;;;1.95;1.20;;;5.10;99.90;;;;;;5025638;28;20041;-78
2020/12/28 00:07:09;;;;;;;1.85;0.98;;;5.10;99.90;;;;;;5013658;28;20045;-80
2020/12/28 00:09:34;;;;;;;2.67;1.10;;;5.10;99.90;;;;;;5025352;28;20507;-79
2020/12/28 00:12:01;;;;;;;1.35;0.68;;;5.10;99.90;;;;;;5031201;28;20506;-78
2020/12/28 00:14:27;;;;;;;1.77;1.00;;;5.20;99.90;;;;;;4994271;28;20144;-79
2020/12/28 00:16:53;;;;;;;1.55;1.00;;;5.20;99.90;;;;;;5029720;28;20104;-79
2020/12/28 00:19:19;;;;;;;1.38;0.90;;;5.20;99.90;;;;;;5029424;28;20372;-79
2020/12/28 00:21:45;;;;;;;1.17;0.88;;;5.30;99.90;;;;;;5023604;28;20040;-79
2020/12/28 00:24:11;;;;;;;1.88;1.23;;;5.30;99.90;;;;;;5028435;28;20022;-79
2020/12/28 00:26:38;;;;;;;1.80;0.80;;;5.30;99.90;;;;;;5027006;28;20048;-79
2020/12/28 00:29:05;;;;;;;0.77;0.65;;;5.50;99.90;;;;;;5027364;28;20414;-77
2020/12/28 00:31:30;;;;;;;1.17;0.82;;;5.40;99.90;;;;;;5029341;28;20028;-77
2020/12/28 00:33:57;;;;;;;2.05;1.10;;;5.40;99.90;;;;;;5029467;28;20041;-78
2020/12/28 00:36:23;;;;;;;3.13;1.00;;;5.30;99.90;;;;;;5028785;28;20033;-79
2020/12/28 00:38:49;;;;;;;2.55;0.98;;;5.20;99.90;;;;;;5031211;28;20148;-79
2020/12/28 00:41:14;;;;;;;2.55;0.90;;;5.10;99.90;;;;;;5026001;28;20124;-79
2020/12/28 00:43:41;;;;;;;1.63;1.00;;;5.10;99.90;;;;;;5028038;28;20038;-79
2020/12/28 00:46:07;;;;;;;1.67;0.90;;;5.10;99.90;;;;;;5025310;28;20275;-79
2020/12/28 00:48:36;;;;;;;2.40;0.88;;;5.10;99.90;;;;;;5024025;28;20124;-79
2020/12/28 00:51:03;;;;;;;2.78;1.20;;;5.10;99.90;;;;;;5028127;28;20091;-78
2020/12/28 00:53:29;;;;;;;1.20;1.10;;;5.30;99.90;;;;;;5027644;28;20033;-78
2020/12/28 00:55:55;;;;;;;1.38;0.82;;;5.10;99.90;;;;;;5027921;28;20087;-76
2020/12/28 00:58:21;;;;;;;1.83;0.90;;;5.10;99.90;;;;;;5029554;28;20065;-80
2020/12/28 01:00:47;;;;;;;2.10;0.80;;;5.10;99.90;;;;;;5028534;28;20080;-78
2020/12/28 01:03:13;;;;;;;1.60;0.95;;;5.00;99.90;;;;;;5028021;28;20393;-79
2020/12/28 01:05:39;;;;;;;1.52;0.80;;;5.00;99.90;;;;;;5025556;28;20041;-81
2020/12/28 01:08:05;;;;;;;1.35;0.90;;;5.10;99.90;;;;;;5025835;28;20494;-78
2020/12/28 01:10:31;;;;;;;3.05;0.80;;;4.90;99.90;;;;;;5024467;28;20072;-77
2020/12/28 01:12:56;;;;;;;1.58;1.08;;;5.10;99.90;;;;;;5010213;28;20091;-80
2020/12/28 01:15:22;;;;;;;1.23;0.80;;;5.10;99.90;;;;;;5024500;28;20041;-81
2020/12/28 01:17:48;;;;;;;1.38;0.82;;;5.20;99.90;;;;;;5029407;28;20087;-82
2020/12/28 01:20:14;;;;;;;3.03;1.17;;;5.20;99.90;;;;;;5028071;28;20033;-77
2020/12/28 01:22:40;;;;;;;6.65;2.28;;;5.20;99.90;;;;;;5027668;28;20185;-79
2020/12/28 01:25:05;;;;;;;1.10;0.90;;;5.10;99.90;;;;;;5012759;28;20044;-79
2020/12/28 01:27:32;;;;;;;1.63;0.90;;;5.00;99.90;;;;;;5027109;28;20080;-79
2020/12/28 01:29:58;;;;;;;2.00;1.08;;;5.10;99.90;;;;;;5024523;28;20046;-79
2020/12/28 01:32:24;;;;;;;1.55;1.10;;;5.00;99.90;;;;;;5011607;28;20036;-78
2020/12/28 01:34:49;;;;;;;1.00;0.90;;;5.00;99.90;;;;;;5026550;28;20105;-79
2020/12/28 01:37:15;;;;;;;2.05;0.80;;;5.10;99.90;;;;;;5028382;28;20417;-78
2020/12/28 01:39:43;;;;;;;1.70;1.10;;;5.10;99.90;;;;;;5029448;28;20051;-79
2020/12/28 01:42:08;;;;;;;2.45;1.13;;;5.10;99.90;;;;;;5024583;28;20045;-79
2020/12/28 01:44:34;;;;;;;1.85;0.90;;;5.20;99.90;;;;;;5029153;28;20041;-81
2020/12/28 01:47:00;;;;;;;1.67;0.90;;;5.30;99.90;;;;;;5030148;28;20132;-81
2020/12/28 01:49:26;;;;;;;1.10;0.90;;;5.20;99.90;;;;;;5015397;28;20125;-79
2020/12/28 01:51:52;;;;;;;2.05;0.90;;;5.20;99.90;;;;;;5026068;28;20040;-79
2020/12/28 01:54:20;;;;;;;1.48;0.80;;;5.30;99.90;;;;;;5027554;28;20041;-79
2020/12/28 01:56:47;;;;;;;2.53;0.88;;;5.20;99.90;;;;;;5023467;28;20128;-80
2020/12/28 01:59:14;;;;;;;1.63;0.90;;;5.30;99.90;;;;;;5028413;28;20044;-80
2020/12/28 02:01:42;;;;;;;1.05;0.90;;;5.30;99.90;;;;;;5032826;28;20037;-82
2020/12/28 02:04:09;;;;;;;1.40;0.85;;;5.30;99.90;;;;;;5028711;28;20132;-79
2020/12/28 02:06:35;;;;;;;1.80;0.82;;;5.30;99.90;;;;;;5026189;28;20103;-78
2020/12/28 02:09:01;;;;;;;1.05;0.90;;;5.20;99.90;;;;;;5027741;28;20495;-80
2020/12/28 02:11:28;;;;;;;0.80;0.80;;;5.20;99.90;;;;;;5031705;28;20030;-77
2020/12/28 02:13:54;;;;;;;1.00;0.90;;;5.10;99.90;;;;;;5030819;28;20088;-79
2020/12/28 02:16:19;;;;;;;1.15;0.90;;;5.10;99.90;;;;;;5031925;28;20037;-80
2020/12/28 02:18:45;;;;;;;1.02;0.82;;;5.20;99.90;;;;;;5037620;28;20499;-79
2020/12/28 02:21:11;;;;;;;2.10;1.10;;;5.10;99.90;;;;;;5026081;28;20048;-79
2020/12/28 02:23:36;;;;;;;1.70;1.13;;;5.10;99.90;;;;;;5035411;28;20139;-78
2020/12/28 02:26:02;;;;;;;2.25;0.90;;;5.20;99.90;;;;;;5030398;28;20112;-79
2020/12/28 02:28:28;;;;;;;2.40;1.20;;;5.30;99.90;;;;;;5027211;28;20041;-77
2020/12/28 02:30:53;;;;;;;1.60;0.93;;;5.30;99.90;;;;;;5027512;28;20494;-78
2020/12/28 02:33:19;;;;;;;1.55;1.00;;;5.30;99.90;;;;;;5032503;28;20535;-81
2020/12/28 02:35:45;;;;;;;1.83;1.20;;;5.20;99.90;;;;;;5034689;28;20018;-80
2020/12/28 02:38:10;;;;;;;2.08;1.00;;;4.70;99.90;;;;;;5032884;28;20029;-79
2020/12/28 02:40:36;;;;;;;1.73;1.00;;;5.10;99.90;;;;;;5035905;28;20037;-78
2020/12/28 02:43:02;;;;;;;1.92;1.00;;;5.10;99.90;;;;;;5031383;28;20069;-78
2020/12/28 02:45:27;;;;;;;1.58;0.95;;;5.10;99.90;;;;;;5027708;28;20035;-77
2020/12/28 02:47:53;;;;;;;2.05;1.25;;;5.20;99.90;;;;;;5031175;28;20034;-79
2020/12/28 02:50:18;;;;;;;1.85;1.00;;;5.30;99.90;;;;;;5032103;28;20025;-79
2020/12/28 02:52:44;;;;;;;1.77;1.10;;;5.20;99.90;;;;;;5031693;28;20555;-80
2020/12/28 02:55:11;;;;;;;1.20;0.90;;;5.20;99.90;;;;;;5025271;28;20029;-80
2020/12/28 02:57:37;;;;;;;2.88;1.10;;;5.10;99.90;;;;;;5027921;28;20471;-77
2020/12/28 03:00:04;;;;;;;2.08;1.10;;;5.10;99.90;;;;;;5010862;28;20033;-79
2020/12/28 03:02:30;;;;;;;1.08;0.98;;;5.00;99.90;;;;;;5031817;28;20037;-79
2020/12/28 03:04:56;;;;;;;2.13;1.15;;;5.00;99.90;;;;;;5029158;28;20461;-78
2020/12/28 03:07:21;;;;;;;1.98;1.10;;;5.00;99.90;;;;;;5027990;28;20458;-79
2020/12/28 03:09:47;;;;;;;3.30;1.08;;;5.00;99.90;;;;;;5015836;28;20040;-79
2020/12/28 03:12:13;;;;;;;1.67;0.90;;;5.00;99.90;;;;;;5011995;28;20052;-78
2020/12/28 03:14:38;;;;;;;1.55;1.05;;;5.00;99.90;;;;;;5031417;28;20021;-81
2020/12/28 03:17:04;;;;;;;1.73;1.00;;;5.00;99.90;;;;;;5027767;28;20471;-79
2020/12/28 03:19:31;;;;;;;1.50;1.13;;;5.00;99.90;;;;;;5030107;28;20116;-79
2020/12/28 03:21:57;;;;;;;1.73;1.00;;;5.00;99.90;;;;;;5027522;28;20073;-79
2020/12/28 03:24:23;;;;;;;2.03;1.13;;;5.00;99.90;;;;;;5026234;28;20522;-80
2020/12/28 03:26:48;;;;;;;2.60;1.10;;;5.00;99.90;;;;;;5015153;28;20038;-78
2020/12/28 03:29:16;;;;;;;1.20;1.00;;;4.90;99.90;;;;;;5033672;28;20578;-79
2020/12/28 03:31:43;;;;;;;1.48;1.10;;;4.90;99.90;;;;;;5032338;28;20046;-79
2020/12/28 03:34:09;;;;;;;1.83;1.00;;;4.90;99.90;;;;;;5030247;28;20183;-83
2020/12/28 03:36:37;;;;;;;1.48;0.98;;;4.90;99.90;;;;;;5030735;28;20566;-77
2020/12/28 03:39:08;;;;;;;3.17;1.10;;;4.90;99.90;;;;;;5011369;28;20192;-77
2020/12/28 03:41:34;;;;;;;1.70;1.33;;;4.90;99.90;;;;;;5031638;28;20049;-79
2020/12/28 03:43:59;;;;;;;2.20;1.10;;;4.80;99.90;;;;;;4997507;28;20041;-77
2020/12/28 03:46:25;;;;;;;1.65;1.20;;;4.80;99.90;;;;;;5029776;28;20030;-78
2020/12/28 03:48:51;;;;;;;2.97;1.63;;;4.80;99.90;;;;;;5040537;28;20053;-78
2020/12/28 03:51:18;;;;;;;1.50;1.20;;;4.80;99.90;;;;;;5039868;28;20029;-77
2020/12/28 03:53:44;;;;;;;2.47;1.38;;;4.80;99.90;;;;;;5015307;28;20511;-78
2020/12/28 03:56:10;;;;;;;2.22;1.13;;;4.70;99.90;;;;;;5011837;28;20124;-78
2020/12/28 03:58:39;;;;;;;4.07;1.30;;;4.70;99.90;;;;;;5030959;28;20033;-78
2020/12/28 04:01:06;;;;;;;2.47;1.00;;;4.70;99.90;;;;;;5028368;28;20040;-79
2020/12/28 04:03:32;;;;;;;2.08;1.30;;;4.70;99.90;;;;;;5030083;28;20129;-80
2020/12/28 04:06:01;;;;;;;1.27;1.00;;;4.60;99.90;;;;;;5014278;28;20048;-80
2020/12/28 04:08:28;;;;;;;2.10;1.20;;;4.60;99.90;;;;;;5037159;28;20037;-79
2020/12/28 04:10:53;;;;;;;2.08;1.27;;;4.60;99.90;;;;;;5027544;28;20091;-80
2020/12/28 04:13:19;;;;;;;1.83;1.20;;;4.60;99.90;;;;;;5032656;28;20205;-80
2020/12/28 04:15:45;;;;;;;2.90;1.42;;;4.50;99.90;;;;;;5030286;28;20037;-80
2020/12/28 04:18:10;;;;;;;2.95;1.42;;;4.50;99.90;;;;;;5027731;28;20041;-80
2020/12/28 04:20:36;;;;;;;2.33;1.15;;;4.50;99.90;;;;;;5029868;28;20021;-78
2020/12/28 04:23:02;;;;;;;1.75;1.00;;;4.50;99.90;;;;;;5030541;28;21001;-84
2020/12/28 04:25:27;;;;;;;1.77;1.08;;;4.40;99.90;;;;;;5031354;28;20120;-80
2020/12/28 04:27:53;;;;;;;1.83;1.08;;;4.50;99.90;;;;;;5019921;28;20462;-79
2020/12/28 04:30:19;;;;;;;1.95;1.20;;;4.40;99.90;;;;;;5031106;28;20026;-80
2020/12/28 04:32:45;;;;;;;4.15;1.10;;;4.40;99.90;;;;;;5031677;28;20056;-79
2020/12/28 04:35:10;;;;;;;3.50;1.30;;;4.50;99.90;;;;;;5037401;28;20041;-78
2020/12/28 04:37:36;;;;;;;1.80;0.95;;;4.40;99.90;;;;;;5030128;28;20432;-80
2020/12/28 04:40:03;;;;;;;9.95;2.78;;;4.40;99.90;;;;;;5028188;28;20534;-79
2020/12/28 04:42:30;;;;;;;3.95;1.50;;;4.40;99.90;;;;;;5035580;28;20033;-79
2020/12/28 04:44:56;;;;;;;2.95;1.40;;;4.40;99.90;;;;;;5011242;28;20041;-79
2020/12/28 04:47:22;;;;;;;6.43;1.27;;;4.40;99.90;;;;;;5031421;28;20117;-79
2020/12/28 04:49:47;;;;;;;4.13;1.10;;;4.30;99.90;;;;;;5037481;28;20134;-78
2020/12/28 04:52:14;;;;;;;2.38;1.10;;;4.40;99.90;;;;;;5031523;28;20112;-79
2020/12/28 04:54:41;;;;;;;2.17;1.17;;;4.40;99.90;;;;;;5028779;28;20112;-81
2020/12/28 04:57:08;;;;;;;1.15;0.85;;;4.30;99.90;;;;;;5027997;28;20033;-80
2020/12/28 04:59:34;;;;;;;1.85;1.17;;;4.30;99.90;;;;;;5031378;28;20822;-78
2020/12/28 05:02:00;;;;;;;2.33;1.20;;;4.30;99.90;;;;;;5029971;28;20037;-80
2020/12/28 05:04:26;;;;;;;2.08;1.27;;;4.20;99.90;;;;;;5033243;28;20029;-79
2020/12/28 05:07:10;;;;;;;3.15;1.42;;;4.30;99.90;;;;;;5033877;28;20499;-82
2020/12/28 05:09:36;;;;;;;1.92;0.95;;;4.20;99.90;;;;;;5029818;28;20045;-79
2020/12/28 05:12:03;;;;;;;2.40;1.40;;;4.20;99.90;;;;;;5026793;28;20042;-81
2020/12/28 05:14:29;;;;;;;1.92;1.20;;;4.20;99.90;;;;;;5027993;28;20017;-80
2020/12/28 05:17:03;;;;;;;2.90;1.33;;;4.10;99.90;;;;;;5029667;28;20048;-79
2020/12/28 05:19:29;;;;;;;2.67;1.20;;;4.10;99.90;;;;;;5031768;28;20033;-80
2020/12/28 05:21:56;;;;;;;1.83;1.20;;;4.00;99.90;;;;;;5033161;28;20414;-78
2020/12/28 05:24:22;;;;;;;3.67;1.10;;;4.00;99.90;;;;;;5030609;28;20064;-78
2020/12/28 05:26:48;;;;;;;2.22;1.50;;;4.00;99.90;;;;;;5032689;28;20099;-80
2020/12/28 05:29:22;;;;;;;2.92;1.40;;;3.90;99.90;;;;;;5023438;28;20042;-79
2020/12/28 05:31:53;;;;;;;2.45;1.60;;;3.90;99.90;;;;;;5028034;28;20499;-78
2020/12/28 05:34:27;;;;;;;3.65;1.60;;;3.90;99.90;;;;;;5011463;28;20045;-80
2020/12/28 05:36:54;;;;;;;3.67;1.33;;;3.90;99.90;;;;;;5030117;28;20379;-79
2020/12/28 05:39:22;;;;;;;3.60;1.80;;;3.90;99.90;;;;;;5034942;28;20484;-80
2020/12/28 05:41:54;;;;;;;3.22;1.80;;;4.00;99.90;;;;;;5051040;28;20045;-80
2020/12/28 05:44:19;;;;;;;3.90;1.83;;;4.10;99.90;;;;;;5022967;28;20029;-79
2020/12/28 05:46:49;;;;;;;2.67;1.50;;;4.10;99.90;;;;;;5033976;28;20475;-79
2020/12/28 05:49:20;;;;;;;2.58;1.60;;;4.20;99.90;;;;;;5031436;28;20072;-80
2020/12/28 05:51:47;;;;;;;2.72;1.65;;;4.20;99.90;;;;;;5034473;28;20033;-79
2020/12/28 05:54:14;;;;;;;3.60;1.77;;;4.20;99.90;;;;;;5028838;28;20091;-78
2020/12/28 05:56:43;;;;;;;2.63;1.40;;;4.30;99.90;;;;;;5035028;28;20034;-79
2020/12/28 05:59:11;;;;;;;2.65;1.50;;;4.30;99.90;;;;;;5025046;28;20132;-79
2020/12/28 06:01:41;;;;;;;2.05;1.20;;;4.40;99.90;;;;;;5031897;28;20044;-78
2020/12/28 06:04:12;;;;;;;2.42;1.50;;;4.40;99.90;;;;;;5030516;28;20036;-77
2020/12/28 06:06:38;;;;;;;2.53;1.60;;;4.40;99.90;;;;;;5029156;28;20513;-79
2020/12/28 06:09:04;;;;;;;3.08;1.80;;;4.80;99.90;;;;;;5015332;28;20042;-77
2020/12/28 06:11:31;;;;;;;3.70;2.20;;;4.40;99.90;;;;;;5034088;28;20510;-77
2020/12/28 06:13:56;;;;;;;3.75;1.90;;;4.40;99.90;;;;;;5030227;28;20033;-78
2020/12/28 06:16:23;;;;;;;3.97;1.70;;;4.30;99.90;;;;;;5033742;28;20110;-79
2020/12/28 06:18:54;;;;;;;2.75;1.42;;;4.30;99.90;;;;;;5029855;28;20064;-79
2020/12/28 06:21:19;;;;;;;5.32;1.80;;;4.20;99.90;;;;;;5031754;28;20034;-79
2020/12/28 06:23:49;;;;;;;4.60;2.58;;;4.20;99.90;;;;;;5035143;28;20468;-79
2020/12/28 06:26:21;;;;;;;4.35;2.60;;;4.10;99.90;;;;;;5033912;28;20075;-80
2020/12/28 06:28:47;;;;;;;3.85;2.15;;;4.10;99.90;;;;;;5049308;28;20037;-79
2020/12/28 06:31:13;;;;;;;4.78;2.20;;;4.10;99.90;;;;;;5036590;28;20041;-78
2020/12/28 06:33:49;;;;;;;5.45;2.13;;;4.00;99.90;;;;;;5037924;28;20565;-81
2020/12/28 06:36:16;;;;;;;3.60;2.30;;;4.00;99.90;;;;;;5024581;28;20038;-80
2020/12/28 06:38:43;;;;;;;4.68;2.05;;;4.00;99.90;;;;;;5028584;28;20510;-80
2020/12/28 06:41:23;;;;;;;3.03;2.10;;;3.90;99.90;;;;;;5036549;28;20053;-79
2020/12/28 06:43:49;;;;;;;2.83;1.93;;;3.90;99.90;;;;;;5031690;28;20046;-80
2020/12/28 06:46:22;;;;;;;5.13;2.03;;;3.90;99.90;;;;;;5029163;28;20369;-80
2020/12/28 06:48:47;;;;;;;2.90;1.90;;;3.90;99.90;;;;;;5028774;28;20103;-80
2020/12/28 06:51:13;;;;;;;4.57;1.90;;;3.80;99.90;;;;;;5028015;28;20041;-78
2020/12/28 06:53:39;;;;;;;2.70;1.90;;;3.90;99.90;;;;;;5025884;28;20056;-82
2020/12/28 06:56:06;;;;;;;2.55;1.73;;;3.80;99.90;;;;;;5017959;28;20487;-79
2020/12/28 06:58:32;;;;;;;6.30;3.92;;;3.80;99.90;;;;;;5030768;28;20053;-81
2020/12/28 07:00:58;;;;;;;4.45;2.40;;;3.90;99.90;;;;;;5026963;28;20073;-79
2020/12/28 07:03:25;;;;;;;3.47;2.47;;;3.90;99.90;;;;;;4997226;28;20069;-80
2020/12/28 07:06:00;;;;;;;4.00;2.30;;;3.90;99.90;;;;;;5008801;28;20355;-79
2020/12/28 07:08:27;;;;;;;4.03;2.65;;;3.90;99.90;;;;;;5029681;28;20051;-80
2020/12/28 07:11:05;;;;;;;4.25;2.70;;;3.90;99.90;;;;;;5031531;28;20078;-81
2020/12/28 07:13:32;;;;;;;5.53;2.78;;;3.90;99.90;;;;;;5046654;28;20045;-80
2020/12/28 07:16:04;;;;;;;6.25;3.10;;;4.00;99.90;;;;;;5033772;28;20033;-80
2020/12/28 07:18:30;;;;;;;6.93;3.05;;;4.00;99.90;;;;;;5045895;28;20541;-81
2020/12/28 07:20:57;;;;;;;5.65;3.10;;;4.00;99.90;;;;;;5010340;28;20085;-79
2020/12/28 07:23:24;;;;;;;5.88;2.83;;;4.00;99.90;;;;;;5028954;28;20041;-79
2020/12/28 07:26:07;;;;;;;6.22;3.08;;;4.90;99.90;;;;;;5032250;28;20075;-78
2020/12/28 07:28:37;;;;;;;4.93;3.03;;;4.00;99.90;;;;;;5029328;28;20128;-79
2020/12/28 07:31:04;;;;;;;7.13;3.05;;;4.10;99.90;;;;;;5045141;28;20034;-78
2020/12/28 07:33:30;;;;;;;5.40;3.03;;;4.10;99.90;;;;;;5029993;28;20037;-80
2020/12/28 07:36:05;;;;;;;3.67;2.72;;;4.10;99.90;;;;;;5030671;28;20030;-79
2020/12/28 07:38:32;;;;;;;4.72;3.15;;;4.10;99.90;;;;;;5029025;28;20057;-78
2020/12/28 07:40:58;;;;;;;4.72;3.13;;;4.10;99.90;;;;;;5027712;28;20085;-80
2020/12/28 07:43:24;;;;;;;3.67;2.67;;;5.30;99.90;;;;;;5038066;28;20040;-79
2020/12/28 07:45:50;;;;;;;4.32;3.08;;;4.10;99.90;;;;;;5007415;28;20046;-80
2020/12/28 07:48:24;;;;;;;4.47;3.17;;;4.10;99.90;;;;;;5015329;28;20187;-79
2020/12/28 07:50:53;;;;;;;5.05;2.80;;;4.10;99.90;;;;;;5031218;28;20112;-79
2020/12/28 07:53:25;;;;;;;6.78;3.30;;;4.10;99.90;;;;;;5030292;28;20046;-79
2020/12/28 07:56:04;;;;;;;7.88;2.90;;;4.10;99.90;;;;;;5032819;28;20033;-80
2020/12/28 07:59:08;;;;;;;7.15;2.90;;;4.10;99.90;;;;;;5030007;28;20042;-79
2020/12/28 08:01:53;;;;;;;5.68;3.50;;;4.10;99.90;;;;;;5024658;28;20093;-79
2020/12/28 08:04:22;;;;;;;7.35;3.03;;;4.10;99.90;;;;;;5033939;28;21867;-79
2020/12/28 08:06:49;;;;;;;5.15;3.30;;;4.10;99.90;;;;;;5026351;28;20056;-83
2020/12/28 08:09:20;;;;;;;4.70;2.85;;;4.10;99.90;;;;;;5031514;28;20029;-79
2020/12/28 08:11:46;;;;;;;5.07;3.25;;;4.10;99.90;;;;;;5034916;28;20453;-80
2020/12/28 08:14:12;;;;;;;4.43;3.00;;;4.20;99.90;;;;;;5033932;28;20041;-80
2020/12/28 08:16:38;;;;;;;7.93;3.50;;;4.20;99.90;;;;;;5011836;28;20048;-78
2020/12/28 08:19:03;;;;;;;6.20;3.83;;;4.20;99.90;;;;;;5032448;28;20099;-80
2020/12/28 08:21:41;;;;;;;6.40;3.35;;;4.30;99.90;;;;;;5029916;28;20041;-79
2020/12/28 08:24:16;;;;;;;9.38;3.53;;;4.30;99.90;;;;;;5018003;28;20061;-79
2020/12/28 08:26:43;;;;;;;6.68;3.83;;;4.40;99.90;;;;;;5031491;28;20052;-80
2020/12/28 08:29:09;;;;;;;8.57;4.22;;;4.40;99.90;;;;;;5029160;28;20034;-78
2020/12/28 08:31:36;;;;;;;9.85;4.88;;;4.50;99.90;;;;;;5032343;28;20111;-80
2020/12/28 08:34:15;;;;;;;8.48;4.30;;;4.50;99.90;;;;;;5040155;28;20054;-81
2020/12/28 08:36:50;;;;;;;9.70;4.72;;;4.60;99.90;;;;;;5032142;28;20029;-80
2020/12/28 08:39:23;;;;;;;7.97;3.97;;;4.80;99.90;;;;;;5035761;28;20052;-79
2020/12/28 08:41:59;;;;;;;6.30;3.05;;;4.70;99.90;;;;;;5033365;28;20044;-80
2020/12/28 08:44:33;;;;;;;5.57;2.85;;;4.70;99.90;;;;;;5036172;28;20115;-81
2020/12/28 08:47:00;;;;;;;6.47;3.03;;;4.70;99.90;;;;;;5029267;28;20049;-80
2020/12/28 08:49:33;;;;;;;5.72;2.72;;;4.80;99.90;;;;;;5022287;28;20048;-79
2020/12/28 08:52:12;;;;;;;4.13;2.72;;;4.80;99.90;;;;;;5033724;28;20038;-80
2020/12/28 08:54:39;;;;;;;4.30;2.83;;;4.80;99.90;;;;;;5028090;28;20047;-85
2020/12/28 08:57:05;;;;;;;4.25;2.40;;;6.00;99.90;;;;;;5028330;28;20476;-78
2020/12/28 08:59:32;;;;;;;5.85;2.53;;;4.90;99.90;;;;;;5034244;28;20128;-79
2020/12/28 09:01:58;;;;;;;5.60;3.92;;;4.80;99.90;;;;;;5031519;28;20065;-79
2020/12/28 09:04:24;;;;;;;4.60;2.83;;;4.90;99.90;;;;;;5030566;28;20046;-81
2020/12/28 09:06:51;;;;;;;5.55;2.83;;;5.00;99.90;;;;;;5025659;28;20037;-79
2020/12/28 09:09:17;;;;;;;5.20;2.83;;;5.00;99.90;;;;;;5029312;28;20053;-80
2020/12/28 09:11:44;;;;;;;4.22;2.55;;;5.10;99.90;;;;;;5029642;28;20046;-79
2020/12/28 09:14:13;;;;;;;5.03;2.72;;;5.10;99.90;;;;;;5029087;28;20029;-81
2020/12/28 09:16:38;;;;;;;5.28;2.72;;;5.20;99.90;;;;;;5034206;28;20513;-80
2020/12/28 09:19:05;;;;;;;6.00;3.22;;;5.10;99.90;;;;;;5027950;28;20049;-82
2020/12/28 09:21:31;;;;;;;6.93;2.75;;;5.10;99.90;;;;;;5024410;28;20566;-82
2020/12/28 09:23:57;;;;;;;6.97;3.42;;;5.20;99.90;;;;;;5031358;28;20045;-81
2020/12/28 09:26:22;;;;;;;7.53;3.50;;;5.20;99.90;;;;;;5033297;28;20025;-83
2020/12/28 09:28:48;;;;;;;10.63;4.20;;;5.30;99.90;;;;;;5028344;28;20046;-80
2020/12/28 09:31:16;;;;;;;7.80;3.80;;;5.30;99.90;;;;;;5030284;28;20037;-80
2020/12/28 09:33:42;;;;;;;5.20;2.63;;;5.30;99.90;;;;;;5029371;28;20060;-78
2020/12/28 09:36:08;;;;;;;3.70;2.00;;;5.30;99.90;;;;;;5009568;28;20038;-80
2020/12/28 09:38:33;;;;;;;3.88;2.33;;;4.80;99.90;;;;;;5031608;28;20087;-82
2020/12/28 09:40:59;;;;;;;4.75;2.00;;;5.20;99.90;;;;;;5032823;28;20104;-80
2020/12/28 09:43:25;;;;;;;4.32;1.60;;;5.20;99.90;;;;;;5026625;28;20045;-79
2020/12/28 09:45:51;;;;;;;6.45;1.90;;;5.20;99.90;;;;;;5026604;28;20542;-81
2020/12/28 09:48:17;;;;;;;5.50;1.80;;;5.10;99.90;;;;;;5029550;28;20113;-82
2020/12/28 09:50:43;;;;;;;4.07;1.50;;;5.10;99.90;;;;;;5025831;28;20571;-83
2020/12/28 09:53:09;;;;;;;4.30;1.75;;;5.10;99.90;;;;;;5026295;28;20347;-79
2020/12/28 09:55:35;;;;;;;5.18;1.90;;;5.10;99.90;;;;;;5036773;28;20487;-80
2020/12/28 09:58:00;;;;;;;6.18;1.70;;;5.20;99.90;;;;;;4993210;28;20146;-82
2020/12/28 10:00:26;;;;;;;4.03;1.85;;;5.20;99.90;;;;;;5028048;28;20037;-81
2020/12/28 10:02:51;;;;;;;3.60;1.42;;;6.00;99.90;;;;;;5033768;28;20072;-81
2020/12/28 10:05:17;;;;;;;5.57;1.60;;;5.30;99.90;;;;;;5028051;28;20045;-81
2020/12/28 10:07:43;;;;;;;2.85;1.42;;;5.30;99.90;;;;;;5037784;28;20037;-80
2020/12/28 10:10:09;;;;;;;2.47;1.35;;;5.30;99.90;;;;;;5028935;28;20041;-82
2020/12/28 10:12:36;;;;;;;3.13;1.55;;;5.20;99.90;;;;;;5027016;28;20044;-79
2020/12/28 10:15:03;;;;;;;4.53;1.90;;;5.20;99.90;;;;;;5026463;28;20123;-81
2020/12/28 10:17:31;;;;;;;6.85;2.30;;;5.40;99.90;;;;;;5023684;28;20056;-80
2020/12/28 10:19:57;;;;;;;3.53;1.40;;;5.40;99.90;;;;;;5031512;28;20591;-84
2020/12/28 10:22:25;;;;;;;4.05;1.65;;;5.20;99.90;;;;;;5026912;28;20052;-83
2020/12/28 10:24:52;;;;;;;4.13;1.55;;;5.30;99.90;;;;;;5021859;28;20040;-80
2020/12/28 10:27:17;;;;;;;3.85;1.40;;;5.30;99.90;;;;;;5006913;28;20033;-79
2020/12/28 10:29:44;;;;;;;3.65;1.35;;;5.30;99.90;;;;;;5008038;28;20120;-80
2020/12/28 10:32:10;;;;;;;2.35;1.17;;;5.20;99.90;;;;;;5011173;28;20048;-79
2020/12/28 10:34:35;;;;;;;6.47;2.70;;;5.30;99.90;;;;;;5046194;28;20033;-81
2020/12/28 10:37:01;;;;;;;4.50;1.30;;;5.30;99.90;;;;;;5030694;28;20120;-79
2020/12/28 10:39:27;;;;;;;4.90;1.50;;;5.20;99.90;;;;;;5038010;28;20038;-79
2020/12/28 10:41:52;;;;;;;8.98;3.00;;;5.30;99.90;;;;;;5030821;28;20041;-79
2020/12/28 10:44:19;;;;;;;4.45;1.80;;;5.20;99.90;;;;;;5030316;28;20037;-82
2020/12/28 10:46:45;;;;;;;3.05;1.30;;;5.20;99.90;;;;;;5014764;28;20041;-80
2020/12/28 10:49:12;;;;;;;4.05;1.40;;;5.20;99.90;;;;;;5033531;28;20050;-79
2020/12/28 10:51:38;;;;;;;3.38;1.33;;;5.20;99.90;;;;;;5029415;28;20033;-79
2020/12/28 10:54:04;;;;;;;2.78;1.20;;;5.30;99.90;;;;;;5017493;28;20042;-78
2020/12/28 10:56:30;;;;;;;3.88;1.88;;;5.20;99.90;;;;;;5026086;28;20109;-79
2020/12/28 10:58:57;;;;;;;3.42;1.30;;;5.20;99.90;;;;;;5029809;28;20041;-79
2020/12/28 11:01:25;;;;;;;5.13;1.50;;;5.40;99.90;;;;;;5030427;28;20033;-79
2020/12/28 11:03:52;;;;;;;4.63;1.80;;;5.20;99.90;;;;;;5018168;28;20051;-82
2020/12/28 11:06:18;;;;;;;3.05;1.40;;;5.20;99.90;;;;;;5033026;28;20096;-81
2020/12/28 11:08:44;;;;;;;2.53;1.40;;;5.20;99.90;;;;;;5032361;28;20047;-80
2020/12/28 11:11:10;;;;;;;1.90;1.17;;;5.30;99.90;;;;;;5035995;28;20108;-79
2020/12/28 11:13:36;;;;;;;2.53;1.08;;;5.30;99.90;;;;;;5025985;28;20044;-79
2020/12/28 11:16:02;;;;;;;1.65;1.05;;;5.30;99.90;;;;;;5012515;28;20514;-81
2020/12/28 11:18:27;;;;;;;1.23;0.93;;;5.30;99.90;;;;;;5030864;28;20061;-81
2020/12/28 11:20:53;;;;;;;1.83;1.17;;;5.30;99.90;;;;;;5031969;28;20087;-79
2020/12/28 11:23:19;;;;;;;2.20;1.10;;;5.30;99.90;;;;;;5018937;28;20064;-78
2020/12/28 11:25:44;;;;;;;2.67;1.00;;;5.20;99.90;;;;;;5030002;28;20527;-80
2020/12/28 11:28:10;;;;;;;1.98;1.10;;;5.20;99.90;;;;;;5038370;28;20060;-80
2020/12/28 11:30:35;;;;;;;2.63;1.27;;;5.30;99.90;;;;;;5013284;28;20037;-80
2020/12/28 11:33:01;;;;;;;1.90;1.02;;;5.30;99.90;;;;;;5026372;28;20124;-79
2020/12/28 11:35:27;;;;;;;1.80;1.10;;;5.30;99.90;;;;;;5029227;28;20042;-79
2020/12/28 11:37:53;;;;;;;0.98;0.80;;;5.20;99.90;;;;;;5033690;28;20045;-81
2020/12/28 11:40:20;;;;;;;1.70;1.00;;;5.10;99.90;;;;;;5032925;28;20052;-82
2020/12/28 11:42:46;;;;;;;1.65;1.10;;;5.00;99.90;;;;;;5036880;28;20108;-80
2020/12/28 11:45:11;;;;;;;1.48;0.93;;;4.90;99.90;;;;;;5035597;28;20069;-79
2020/12/28 11:47:37;;;;;;;1.70;1.00;;;4.80;99.90;;;;;;5033246;28;20109;-81
2020/12/28 11:50:05;;;;;;;1.60;1.00;;;4.80;99.90;;;;;;5034961;28;20026;-82
2020/12/28 11:52:30;;;;;;;1.92;1.10;;;4.80;99.90;;;;;;5040259;28;20032;-81
2020/12/28 11:54:56;;;;;;;1.77;1.20;;;4.90;99.90;;;;;;5035638;28;20048;-79
2020/12/28 11:57:22;;;;;;;1.92;1.13;;;4.80;99.90;;;;;;5037356;28;20125;-81
2020/12/28 11:59:47;;;;;;;1.88;1.20;;;4.90;99.90;;;;;;5034057;28;20053;-81
2020/12/28 12:02:15;;;;;;;2.35;1.17;;;4.90;99.90;;;;;;5033897;28;20103;-79
2020/12/28 12:04:50;;;;;;;2.97;1.58;;;4.90;99.90;;;;;;5029277;28;20033;-81
2020/12/28 12:07:21;;;;;;;3.25;1.70;;;4.90;99.90;;;;;;5040522;28;20064;-87
2020/12/28 12:09:48;;;;;;;1.77;1.30;;;5.00;99.90;;;;;;5032656;28;20064;-82
2020/12/28 12:12:15;;;;;;;3.08;1.30;;;5.00;99.90;;;;;;5031694;28;20033;-82
2020/12/28 12:14:41;;;;;;;2.70;1.30;;;5.10;99.90;;;;;;5032116;28;20021;-80
2020/12/28 12:17:06;;;;;;;2.45;1.50;;;5.00;99.90;;;;;;5025355;28;20098;-80
2020/12/28 12:19:33;;;;;;;2.40;1.58;;;5.10;99.90;;;;;;5026046;28;20045;-82
2020/12/28 12:21:59;;;;;;;2.95;1.60;;;5.10;99.90;;;;;;5026304;28;20041;-82
2020/12/28 12:24:30;;;;;;;2.08;1.40;;;5.10;99.90;;;;;;5035460;28;20040;-82
2020/12/28 12:26:56;;;;;;;3.45;1.30;;;5.10;99.90;;;;;;5032021;28;20030;-80
2020/12/28 12:29:22;;;;;;;2.22;1.63;;;5.20;99.90;;;;;;5007559;28;20064;-80
2020/12/28 12:31:51;;;;;;;3.00;1.88;;;5.20;99.90;;;;;;5031362;28;20525;-83
2020/12/28 12:34:18;;;;;;;3.70;1.40;;;5.20;99.90;;;;;;5028659;28;20038;-79
2020/12/28 12:36:45;;;;;;;2.60;1.60;;;5.20;99.90;;;;;;5029539;28;20034;-81
2020/12/28 12:39:11;;;;;;;2.30;1.50;;;5.20;99.90;;;;;;5027029;28;20037;-80
2020/12/28 12:41:36;;;;;;;2.58;1.60;;;5.20;99.90;;;;;;5031013;28;20420;-80
2020/12/28 12:44:03;;;;;;;2.10;1.20;;;5.50;99.90;;;;;;5022913;28;20598;-85
2020/12/28 12:46:29;;;;;;;1.70;1.17;;;5.50;99.90;;;;;;5034869;28;20047;-81
2020/12/28 12:48:55;;;;;;;2.25;1.02;;;5.60;99.90;;;;;;5027098;28;20037;-80
2020/12/28 12:51:22;;;;;;;2.85;1.05;;;5.80;99.90;;;;;;5031940;28;20037;-80
2020/12/28 12:53:50;;;;;;;1.48;0.95;;;6.00;99.90;;;;;;5023095;28;20101;-79
2020/12/28 12:56:20;;;;;;;0.98;0.75;;;6.10;99.90;;;;;;5016915;28;20040;-84
2020/12/28 12:58:46;;;;;;;1.90;0.90;;;6.20;99.90;;;;;;5024537;28;20478;-78